Time;durP1;ratioP1;P1;durP2;ratioP2;P2;SDS_P1;SDS_P2;PMS_P1;PMS_P2;Temp;Humidity;BMP_temperature;BMP_pressure;BME280_temperature;BME280_humidity;BME280_pressure;Samples;Min_cycle;Max_cycle;Signal;HPM_P1;HPM_P2
2021/07/22 00:00:59;;;;;;;15.98;12.73;;;16.50;99.90;;;;;;4900720;29;20045;-76
2021/07/22 00:03:25;;;;;;;17.60;13.55;;;16.50;99.90;;;;;;4886696;29;20063;-76
2021/07/22 00:05:51;;;;;;;13.85;12.32;;;16.50;99.90;;;;;;4909193;29;20041;-76
2021/07/22 00:08:25;;;;;;;14.35;12.65;;;16.40;99.90;;;;;;4896702;29;20054;-76
2021/07/22 00:10:50;;;;;;;13.45;11.02;;;16.40;99.90;;;;;;4883547;29;20478;-76
2021/07/22 00:13:16;;;;;;;14.70;12.80;;;16.40;99.90;;;;;;4866328;29;20047;-76
2021/07/22 00:15:42;;;;;;;15.95;12.70;;;16.40;99.90;;;;;;4873981;29;20044;-76
2021/07/22 00:18:09;;;;;;;15.82;13.95;;;16.40;99.90;;;;;;4858322;29;20080;-76
2021/07/22 00:20:35;;;;;;;15.55;12.45;;;16.50;99.90;;;;;;4901711;29;20495;-76
2021/07/22 00:23:01;;;;;;;14.50;12.07;;;16.50;99.90;;;;;;4862868;29;20060;-75
2021/07/22 00:25:27;;;;;;;14.82;12.38;;;16.50;99.90;;;;;;4864902;29;20546;-77
2021/07/22 00:27:53;;;;;;;19.65;13.45;;;16.50;99.90;;;;;;4881137;29;20040;-77
2021/07/22 00:30:19;;;;;;;18.05;12.75;;;16.50;99.90;;;;;;4874475;29;20476;-77
2021/07/22 00:32:45;;;;;;;18.65;14.02;;;16.50;99.90;;;;;;4881733;29;20055;-76
2021/07/22 00:35:11;;;;;;;15.95;13.35;;;16.50;99.90;;;;;;4911252;29;20603;-76
2021/07/22 00:37:37;;;;;;;18.25;12.68;;;16.50;99.90;;;;;;4883894;29;20100;-76
2021/07/22 00:40:03;;;;;;;15.60;13.13;;;16.50;99.90;;;;;;4902944;29;20044;-76
2021/07/22 00:42:54;;;;;;;17.00;12.38;;;16.50;99.90;;;;;;4862202;29;20044;-76
2021/07/22 00:45:20;;;;;;;15.52;12.52;;;16.50;99.90;;;;;;4908286;29;20296;-76
2021/07/22 00:47:46;;;;;;;18.92;13.70;;;16.40;99.90;;;;;;4893263;29;20032;-75
2021/07/22 00:50:12;;;;;;;15.95;12.65;;;16.50;99.90;;;;;;4887033;29;20064;-75
2021/07/22 00:52:38;;;;;;;18.70;13.90;;;16.40;99.90;;;;;;4883004;29;20044;-76
2021/07/22 00:55:05;;;;;;;15.98;13.63;;;16.50;99.90;;;;;;4902265;29;20036;-76
2021/07/22 00:57:30;;;;;;;15.50;13.00;;;16.50;99.90;;;;;;4865784;29;20134;-76
2021/07/22 00:59:57;;;;;;;19.10;13.50;;;16.40;99.90;;;;;;4880528;29;20107;-76
2021/07/22 01:02:22;;;;;;;16.30;14.38;;;16.40;99.90;;;;;;4877868;29;20044;-76
2021/07/22 01:04:48;;;;;;;18.20;14.43;;;16.40;99.90;;;;;;4872987;29;20052;-75
2021/07/22 01:07:14;;;;;;;17.05;13.73;;;16.40;99.90;;;;;;4879078;29;20461;-75
2021/07/22 01:09:41;;;;;;;17.45;14.27;;;16.40;99.90;;;;;;4900999;29;20055;-75
2021/07/22 01:12:07;;;;;;;15.43;12.90;;;16.40;99.90;;;;;;4881241;29;20051;-75
2021/07/22 01:14:32;;;;;;;16.90;13.98;;;16.40;99.90;;;;;;4881163;29;20052;-76
2021/07/22 01:16:59;;;;;;;18.20;14.13;;;16.40;99.90;;;;;;4898132;29;20527;-75
2021/07/22 01:19:24;;;;;;;18.20;13.00;;;16.40;99.90;;;;;;4881739;29;20047;-76
2021/07/22 01:21:50;;;;;;;19.67;14.48;;;16.40;99.90;;;;;;4894199;29;20491;-76
2021/07/22 01:24:16;;;;;;;17.98;14.10;;;16.40;99.90;;;;;;4899141;29;20586;-75
2021/07/22 01:26:42;;;;;;;14.75;12.13;;;16.40;99.90;;;;;;4883389;29;20073;-76
2021/07/22 01:29:09;;;;;;;17.08;13.70;;;16.40;99.90;;;;;;4865762;29;20123;-76
2021/07/22 01:31:35;;;;;;;20.02;14.40;;;16.40;99.90;;;;;;4876797;29;20040;-76
2021/07/22 01:34:01;;;;;;;19.58;13.68;;;16.40;99.90;;;;;;4901408;29;20099;-76
2021/07/22 01:36:27;;;;;;;20.02;14.88;;;16.40;99.90;;;;;;4895631;29;20479;-75
2021/07/22 01:38:53;;;;;;;15.55;13.52;;;16.40;99.90;;;;;;4855315;29;20443;-75
2021/07/22 01:41:21;;;;;;;16.42;13.35;;;16.40;99.90;;;;;;4890988;29;20116;-75
2021/07/22 01:43:47;;;;;;;16.05;13.35;;;16.30;99.90;;;;;;4866052;29;20122;-75
2021/07/22 01:46:19;;;;;;;21.52;13.45;;;16.30;99.90;;;;;;4912891;29;20086;-76
2021/07/22 01:48:44;;;;;;;22.13;15.07;;;16.30;99.90;;;;;;4896367;29;20127;-76
2021/07/22 01:51:10;;;;;;;17.02;14.60;;;16.30;99.90;;;;;;4884514;29;20474;-76
2021/07/22 01:53:37;;;;;;;18.20;14.27;;;16.30;99.90;;;;;;4893606;29;20403;-76
2021/07/22 01:56:04;;;;;;;22.15;16.88;;;16.30;99.90;;;;;;4874883;29;20451;-76
2021/07/22 01:58:33;;;;;;;18.95;14.88;;;16.30;99.90;;;;;;4870019;29;20419;-76
2021/07/22 02:01:02;;;;;;;20.80;15.35;;;16.20;99.90;;;;;;4886684;29;20048;-76
2021/07/22 02:03:28;;;;;;;20.30;15.73;;;16.20;99.90;;;;;;4911653;29;20047;-75
2021/07/22 02:05:53;;;;;;;15.50;12.35;;;16.20;99.90;;;;;;4892644;29;20459;-75
2021/07/22 02:08:19;;;;;;;18.15;13.55;;;16.20;99.90;;;;;;4870314;29;20150;-76
2021/07/22 02:10:46;;;;;;;20.13;14.32;;;16.20;99.90;;;;;;4888557;29;20491;-76
2021/07/22 02:13:12;;;;;;;17.08;14.23;;;16.20;99.90;;;;;;4877175;29;20060;-76
2021/07/22 02:15:38;;;;;;;13.60;12.10;;;16.20;99.90;;;;;;4905880;29;20534;-76
2021/07/22 02:18:04;;;;;;;15.48;13.65;;;16.20;99.90;;;;;;4875145;29;20678;-76
2021/07/22 02:20:30;;;;;;;17.70;13.52;;;16.10;99.90;;;;;;4892591;29;20040;-76
2021/07/22 02:22:56;;;;;;;18.15;14.35;;;16.20;99.90;;;;;;4911485;29;20068;-76
2021/07/22 02:25:22;;;;;;;18.13;13.68;;;16.10;99.90;;;;;;4884837;29;20032;-75
2021/07/22 02:27:48;;;;;;;15.68;13.50;;;16.10;99.90;;;;;;4883181;29;20044;-76
2021/07/22 02:30:14;;;;;;;19.95;14.70;;;16.10;99.90;;;;;;4884227;29;20506;-76
2021/07/22 02:32:40;;;;;;;19.90;16.15;;;16.00;99.90;;;;;;4909855;29;20048;-76
2021/07/22 02:35:06;;;;;;;26.58;17.23;;;16.00;99.90;;;;;;4897769;29;20506;-76
2021/07/22 02:37:32;;;;;;;18.42;13.90;;;16.00;99.90;;;;;;4913604;29;20044;-76
2021/07/22 02:39:58;;;;;;;22.98;16.83;;;15.90;99.90;;;;;;4889978;29;20096;-75
2021/07/22 02:42:23;;;;;;;23.20;16.90;;;15.90;99.90;;;;;;4880351;29;20036;-75
2021/07/22 02:44:49;;;;;;;26.40;17.15;;;15.90;99.90;;;;;;4892980;29;20044;-75
2021/07/22 02:47:15;;;;;;;17.55;14.07;;;15.90;99.90;;;;;;4872848;29;20049;-76
2021/07/22 02:49:42;;;;;;;16.88;13.85;;;15.80;99.90;;;;;;4908570;29;20036;-76
2021/07/22 02:52:14;;;;;;;19.27;15.63;;;15.80;99.90;;;;;;4894276;29;20048;-75
2021/07/22 02:54:40;;;;;;;16.50;14.25;;;15.80;99.90;;;;;;4884150;29;20091;-75
2021/07/22 02:57:06;;;;;;;15.18;13.02;;;15.80;99.90;;;;;;4878546;29;20052;-75
2021/07/22 02:59:31;;;;;;;16.95;13.40;;;15.80;99.90;;;;;;4898071;29;20044;-75
2021/07/22 03:01:57;;;;;;;19.08;14.15;;;15.80;99.90;;;;;;4916000;29;20036;-76
2021/07/22 03:04:24;;;;;;;16.98;13.88;;;15.70;99.90;;;;;;4896780;29;20048;-76
2021/07/22 03:06:49;;;;;;;19.55;15.15;;;15.80;99.90;;;;;;4912199;29;20055;-76
2021/07/22 03:09:15;;;;;;;17.52;13.95;;;15.70;99.90;;;;;;4883497;29;20060;-76
2021/07/22 03:11:42;;;;;;;20.33;14.57;;;15.70;99.90;;;;;;4878381;29;20088;-76
2021/07/22 03:14:10;;;;;;;19.20;13.93;;;15.70;99.90;;;;;;4906353;29;20048;-76
2021/07/22 03:16:36;;;;;;;18.55;14.48;;;15.70;99.90;;;;;;4872325;29;20397;-76
2021/07/22 03:19:02;;;;;;;16.70;13.75;;;15.70;99.90;;;;;;4871111;29;20127;-76
2021/07/22 03:21:28;;;;;;;20.13;14.70;;;15.70;99.90;;;;;;4885943;29;20518;-76
2021/07/22 03:23:54;;;;;;;17.08;14.48;;;15.70;99.90;;;;;;4892700;29;20099;-76
2021/07/22 03:26:21;;;;;;;16.85;14.43;;;15.80;99.90;;;;;;4872838;29;20044;-76
2021/07/22 03:28:47;;;;;;;20.58;15.05;;;15.70;99.90;;;;;;4873774;29;20134;-76
2021/07/22 03:31:13;;;;;;;20.88;16.65;;;15.80;99.90;;;;;;4905361;29;20487;-76
2021/07/22 03:33:39;;;;;;;22.65;17.13;;;15.80;99.90;;;;;;4875059;29;20109;-76
2021/07/22 03:36:05;;;;;;;19.02;15.20;;;15.80;99.90;;;;;;4893207;29;20065;-75
2021/07/22 03:38:32;;;;;;;20.70;16.92;;;15.80;99.90;;;;;;4887675;29;20507;-75
2021/07/22 03:40:57;;;;;;;23.55;17.38;;;15.80;99.90;;;;;;4871982;29;20040;-75
2021/07/22 03:43:23;;;;;;;21.40;17.17;;;15.80;99.90;;;;;;4874988;29;20446;-76
2021/07/22 03:45:57;;;;;;;20.83;16.85;;;15.80;99.90;;;;;;4869515;29;20125;-84
2021/07/22 03:48:23;;;;;;;23.48;17.92;;;15.80;99.90;;;;;;4906451;29;20056;-83
2021/07/22 03:50:49;;;;;;;24.30;17.67;;;15.80;99.90;;;;;;4859658;29;20059;-83
2021/07/22 03:53:15;;;;;;;22.90;16.60;;;15.80;99.90;;;;;;4908415;29;20052;-83
2021/07/22 03:55:41;;;;;;;23.00;17.05;;;15.80;99.90;;;;;;4880147;29;20068;-83
2021/07/22 03:58:07;;;;;;;20.88;15.75;;;15.80;99.90;;;;;;4898328;29;20044;-83
2021/07/22 04:00:33;;;;;;;23.33;17.30;;;15.80;99.90;;;;;;4877923;29;20399;-83
2021/07/22 04:03:04;;;;;;;26.10;17.77;;;15.80;99.90;;;;;;4888942;29;20079;-83
2021/07/22 04:05:30;;;;;;;23.20;17.25;;;15.80;99.90;;;;;;4884177;29;21115;-84
2021/07/22 04:07:57;;;;;;;23.63;17.55;;;15.80;99.90;;;;;;4913826;29;20483;-84
2021/07/22 04:10:25;;;;;;;18.48;14.00;;;15.80;99.90;;;;;;4897982;29;20054;-84
2021/07/22 04:12:59;;;;;;;19.00;14.93;;;15.80;99.90;;;;;;4906632;29;20068;-83
2021/07/22 04:15:26;;;;;;;17.90;12.52;;;15.80;99.90;;;;;;4912323;29;20154;-84
2021/07/22 04:17:53;;;;;;;16.65;13.02;;;15.90;99.90;;;;;;4903599;29;20063;-85
2021/07/22 04:20:21;;;;;;;18.48;14.15;;;15.90;99.90;;;;;;4890546;29;20474;-84
2021/07/22 04:22:47;;;;;;;22.05;17.23;;;15.90;99.90;;;;;;4903709;29;20056;-84
2021/07/22 04:25:14;;;;;;;19.90;15.32;;;15.90;99.90;;;;;;4898141;29;20123;-83
2021/07/22 04:27:40;;;;;;;21.95;15.85;;;16.00;99.90;;;;;;4911949;29;20032;-84
2021/07/22 04:30:07;;;;;;;22.10;16.40;;;16.00;99.90;;;;;;4898625;29;20064;-83
2021/07/22 04:32:33;;;;;;;21.35;16.50;;;16.00;99.90;;;;;;4877152;29;20055;-84
2021/07/22 04:34:59;;;;;;;25.73;19.13;;;16.00;99.90;;;;;;4874536;29;20105;-84
2021/07/22 04:37:25;;;;;;;25.25;18.42;;;16.10;99.90;;;;;;4902417;29;20062;-84
2021/07/22 04:39:50;;;;;;;25.27;19.48;;;16.10;99.90;;;;;;4884647;29;20048;-84
2021/07/22 04:42:17;;;;;;;24.65;18.40;;;16.10;99.90;;;;;;4895438;29;20052;-84
2021/07/22 04:44:42;;;;;;;23.98;19.00;;;16.20;99.90;;;;;;4915618;29;20047;-77
2021/07/22 04:47:11;;;;;;;24.13;18.75;;;16.10;99.90;;;;;;4881965;29;20052;-76
2021/07/22 04:49:37;;;;;;;24.40;18.33;;;16.20;99.90;;;;;;4877920;29;20138;-76
2021/07/22 04:52:03;;;;;;;25.17;18.27;;;16.20;99.90;;;;;;4866131;29;20146;-75
2021/07/22 04:54:29;;;;;;;21.00;16.42;;;16.20;99.90;;;;;;4892792;29;20076;-75
2021/07/22 04:56:55;;;;;;;25.73;18.83;;;16.20;99.90;;;;;;4895308;29;20032;-76
2021/07/22 04:59:21;;;;;;;21.52;15.40;;;16.30;99.90;;;;;;4880767;29;20578;-76
2021/07/22 05:01:47;;;;;;;21.52;16.15;;;16.30;99.90;;;;;;4862326;29;20055;-75
2021/07/22 05:04:17;;;;;;;21.35;15.88;;;16.40;99.90;;;;;;4887664;29;20052;-75
2021/07/22 05:06:43;;;;;;;21.05;16.38;;;16.40;99.90;;;;;;4886988;29;20476;-75
2021/07/22 05:09:10;;;;;;;20.88;17.02;;;16.40;99.90;;;;;;4884763;29;20163;-75
2021/07/22 05:11:36;;;;;;;21.15;16.23;;;16.40;99.90;;;;;;4880711;29;20072;-75
2021/07/22 05:14:02;;;;;;;24.23;18.20;;;16.50;99.90;;;;;;4877749;29;20507;-75
2021/07/22 05:16:28;;;;;;;23.08;15.75;;;16.50;99.90;;;;;;4880092;29;20048;-75
2021/07/22 05:18:54;;;;;;;21.77;16.25;;;16.50;99.90;;;;;;4892997;29;20036;-75
2021/07/22 05:21:20;;;;;;;20.85;17.17;;;16.50;99.90;;;;;;4893952;29;20104;-75
2021/07/22 05:23:46;;;;;;;23.35;17.77;;;16.60;99.90;;;;;;4895129;29;20040;-76
2021/07/22 05:26:12;;;;;;;21.88;16.20;;;16.60;99.90;;;;;;4888371;29;20040;-75
2021/07/22 05:28:41;;;;;;;24.75;15.63;;;16.70;99.90;;;;;;4876162;29;20040;-77
2021/07/22 05:31:13;;;;;;;19.20;16.02;;;16.70;99.90;;;;;;4912772;29;20090;-76
2021/07/22 05:33:42;;;;;;;23.15;16.58;;;16.80;99.90;;;;;;4889163;29;20232;-77
2021/07/22 05:36:11;;;;;;;23.48;16.75;;;16.80;99.90;;;;;;4884539;29;20116;-77
2021/07/22 05:38:37;;;;;;;18.60;15.95;;;16.80;99.90;;;;;;4903060;29;20040;-76
2021/07/22 05:41:05;;;;;;;20.35;16.50;;;16.90;99.90;;;;;;4919362;29;20044;-76
2021/07/22 05:43:32;;;;;;;19.98;15.10;;;16.90;99.90;;;;;;4897278;29;20399;-76
2021/07/22 05:45:57;;;;;;;21.48;15.45;;;16.90;99.90;;;;;;4874572;29;20620;-77
2021/07/22 05:48:24;;;;;;;20.48;15.30;;;17.00;99.90;;;;;;4896869;29;20135;-77
2021/07/22 05:50:50;;;;;;;19.63;15.68;;;17.00;99.90;;;;;;4909752;29;20064;-75
2021/07/22 05:53:19;;;;;;;21.73;15.13;;;17.10;99.90;;;;;;4886637;29;20409;-76
2021/07/22 05:55:45;;;;;;;17.27;13.57;;;17.10;99.90;;;;;;4889939;29;20310;-76
2021/07/22 05:58:11;;;;;;;16.88;12.85;;;17.10;99.90;;;;;;4897483;29;20257;-76
2021/07/22 06:00:38;;;;;;;22.73;13.63;;;17.20;99.90;;;;;;4894924;29;20071;-75
2021/07/22 06:03:05;;;;;;;17.80;12.80;;;17.20;99.90;;;;;;4893342;29;20036;-76
2021/07/22 06:05:32;;;;;;;14.48;12.50;;;17.20;99.90;;;;;;4911323;29;20143;-75
2021/07/22 06:08:01;;;;;;;12.10;10.10;;;17.30;99.70;;;;;;4909595;29;20051;-76
2021/07/22 06:10:27;;;;;;;15.52;10.65;;;17.30;98.50;;;;;;4885316;29;20044;-76
2021/07/22 06:12:54;;;;;;;11.00;9.70;;;17.30;98.20;;;;;;4878083;29;20356;-76
2021/07/22 06:15:20;;;;;;;10.45;7.78;;;17.30;98.30;;;;;;4910049;29;20044;-77
2021/07/22 06:17:50;;;;;;;12.52;7.88;;;17.30;97.70;;;;;;4844803;29;20062;-78
2021/07/22 06:20:16;;;;;;;10.95;6.78;;;17.40;97.00;;;;;;4887725;29;20044;-76
2021/07/22 06:22:45;;;;;;;8.68;6.55;;;17.40;96.70;;;;;;4893689;29;20091;-79
2021/07/22 06:25:13;;;;;;;8.80;6.65;;;17.40;95.80;;;;;;4890293;29;20153;-75
2021/07/22 06:27:43;;;;;;;9.82;7.13;;;17.30;96.00;;;;;;4906978;29;20376;-76
2021/07/22 06:30:12;;;;;;;8.43;6.25;;;17.40;96.00;;;;;;4891843;29;20063;-77
2021/07/22 06:32:41;;;;;;;6.90;5.87;;;17.40;95.90;;;;;;4887685;29;20075;-87
2021/07/22 06:35:07;;;;;;;10.38;6.30;;;17.50;95.70;;;;;;4891683;29;20307;-76
2021/07/22 06:37:49;;;;;;;8.15;5.30;;;17.50;95.50;;;;;;4860554;29;20044;-77
2021/07/22 06:40:16;;;;;;;7.28;5.60;;;17.50;95.00;;;;;;4914068;29;20510;-79
2021/07/22 06:42:42;;;;;;;8.57;5.90;;;17.60;95.00;;;;;;4892342;29;20048;-77
2021/07/22 06:45:09;;;;;;;8.90;5.53;;;17.60;94.70;;;;;;4907369;29;20059;-78
2021/07/22 06:47:41;;;;;;;7.18;4.95;;;17.70;94.60;;;;;;4891119;29;20518;-79
2021/07/22 06:50:13;;;;;;;6.43;5.00;;;17.70;94.00;;;;;;4905231;29;20055;-75
2021/07/22 06:52:42;;;;;;;7.95;4.90;;;17.70;92.90;;;;;;4892272;29;20044;-76
2021/07/22 06:55:09;;;;;;;8.63;4.82;;;17.80;92.60;;;;;;4878121;29;20047;-77
2021/07/22 06:57:35;;;;;;;8.50;5.43;;;17.80;93.00;;;;;;4877247;29;20537;-77
2021/07/22 07:00:02;;;;;;;7.57;5.00;;;17.80;93.20;;;;;;4891476;29;20036;-75
2021/07/22 07:02:28;;;;;;;8.45;5.50;;;17.90;93.30;;;;;;4874324;29;20048;-76
2021/07/22 07:04:54;;;;;;;6.78;5.03;;;17.90;93.10;;;;;;4889426;29;20055;-77
2021/07/22 07:07:19;;;;;;;7.72;4.97;;;18.00;92.70;;;;;;4874231;29;20504;-75
2021/07/22 07:09:45;;;;;;;10.07;5.00;;;18.00;92.40;;;;;;4846110;29;20051;-75
2021/07/22 07:12:11;;;;;;;10.60;4.93;;;18.00;92.70;;;;;;4909748;29;20048;-77
2021/07/22 07:14:37;;;;;;;9.85;5.70;;;18.10;92.70;;;;;;4872338;29;20185;-76
2021/07/22 07:17:04;;;;;;;7.82;5.22;;;18.10;92.60;;;;;;4897206;29;20052;-77
2021/07/22 07:19:30;;;;;;;8.32;4.53;;;18.20;92.80;;;;;;4859550;29;20040;-78
2021/07/22 07:21:56;;;;;;;6.38;4.38;;;18.30;92.40;;;;;;4874785;29;20406;-77
2021/07/22 07:24:22;;;;;;;8.00;4.90;;;18.40;92.30;;;;;;4868690;29;20103;-77
2021/07/22 07:26:48;;;;;;;8.45;4.95;;;18.40;92.20;;;;;;4914184;29;20044;-76
2021/07/22 07:29:14;;;;;;;8.20;5.15;;;18.40;91.80;;;;;;4880314;29;20071;-77
2021/07/22 07:31:40;;;;;;;7.20;5.07;;;18.40;91.50;;;;;;4865250;29;20054;-82
2021/07/22 07:34:09;;;;;;;8.60;5.85;;;18.40;91.70;;;;;;4916135;29;20766;-82
2021/07/22 07:36:41;;;;;;;9.25;4.90;;;18.50;91.50;;;;;;4880273;29;20426;-84
2021/07/22 07:39:07;;;;;;;7.30;4.78;;;18.50;91.10;;;;;;4867651;29;20072;-86
2021/07/22 07:41:33;;;;;;;6.53;4.90;;;18.50;91.20;;;;;;4890789;29;21000;-84
2021/07/22 07:43:58;;;;;;;7.00;4.85;;;18.50;91.20;;;;;;4891737;29;20167;-84
2021/07/22 07:46:24;;;;;;;6.57;4.40;;;18.60;91.60;;;;;;4913458;29;20487;-85
2021/07/22 07:48:50;;;;;;;8.10;5.18;;;18.60;91.30;;;;;;4908323;29;20048;-77
2021/07/22 07:51:16;;;;;;;7.47;4.80;;;18.70;91.10;;;;;;4863791;29;20052;-77
2021/07/22 07:53:42;;;;;;;9.07;5.43;;;18.80;91.20;;;;;;4877133;29;20067;-77
2021/07/22 07:56:11;;;;;;;6.63;4.90;;;18.80;90.00;;;;;;4879885;29;20070;-77
2021/07/22 07:58:37;;;;;;;6.35;4.90;;;18.80;90.40;;;;;;4863296;29;20070;-81
2021/07/22 08:01:03;;;;;;;6.70;5.20;;;18.90;91.00;;;;;;4890992;29;20040;-78
2021/07/22 08:03:29;;;;;;;7.38;5.70;;;18.90;90.50;;;;;;4905924;29;20483;-77
2021/07/22 08:05:55;;;;;;;8.18;5.00;;;18.90;90.40;;;;;;4902232;29;20068;-77
2021/07/22 08:08:22;;;;;;;7.72;5.68;;;18.90;90.40;;;;;;4893689;29;20063;-77
2021/07/22 08:10:47;;;;;;;7.80;5.05;;;18.90;89.00;;;;;;4888995;29;20040;-78
2021/07/22 08:13:14;;;;;;;8.35;5.68;;;18.90;90.30;;;;;;4911020;29;20047;-78
2021/07/22 08:15:43;;;;;;;7.47;5.15;;;18.90;90.40;;;;;;4880912;29;20131;-78
2021/07/22 08:18:11;;;;;;;7.10;5.32;;;18.90;90.40;;;;;;4889335;29;20076;-76
2021/07/22 08:20:37;;;;;;;8.13;5.43;;;18.90;90.40;;;;;;4910935;29;20225;-77
2021/07/22 08:23:03;;;;;;;8.10;5.60;;;19.10;89.70;;;;;;4894289;29;20042;-78
2021/07/22 08:25:32;;;;;;;8.10;5.50;;;19.20;86.70;;;;;;4913428;29;20048;-78
2021/07/22 08:27:58;;;;;;;8.25;5.57;;;19.10;88.70;;;;;;4894948;29;20143;-77
2021/07/22 08:30:24;;;;;;;7.32;5.82;;;19.10;88.60;;;;;;4874632;29;20138;-77
2021/07/22 08:32:50;;;;;;;8.57;5.47;;;19.10;90.00;;;;;;4888064;29;20479;-78
2021/07/22 08:35:16;;;;;;;7.90;5.68;;;19.10;90.10;;;;;;4886142;29;20559;-78
2021/07/22 08:37:43;;;;;;;6.93;5.07;;;19.10;90.30;;;;;;4858338;29;20051;-78
2021/07/22 08:40:11;;;;;;;8.77;5.07;;;19.10;90.00;;;;;;4900518;29;20099;-78
2021/07/22 08:42:40;;;;;;;7.35;4.97;;;19.10;88.50;;;;;;4903912;29;20063;-76
2021/07/22 08:45:10;;;;;;;8.07;5.10;;;19.30;88.10;;;;;;4901692;29;20080;-78
2021/07/22 08:47:36;;;;;;;;;;;19.50;88.90;;;;;;4900295;29;20385;-77
2021/07/22 08:50:04;;;;;;;8.07;5.63;;;19.60;89.50;;;;;;4899356;29;19930;-76
2021/07/22 08:52:30;;;;;;;7.45;5.38;;;19.60;88.70;;;;;;4901915;29;20040;-77
2021/07/22 08:54:56;;;;;;;7.65;5.43;;;19.50;88.50;;;;;;4870805;29;20036;-78
2021/07/22 08:57:29;;;;;;;7.03;5.13;;;19.50;89.50;;;;;;4909525;29;20051;-76
2021/07/22 09:00:00;;;;;;;6.50;5.50;;;19.50;87.70;;;;;;4897812;29;20055;-76
2021/07/22 09:02:30;;;;;;;6.63;5.00;;;19.50;87.90;;;;;;4896937;29;20044;-76
2021/07/22 09:04:58;;;;;;;7.10;5.13;;;19.50;84.70;;;;;;4900556;29;20233;-75
2021/07/22 09:07:25;;;;;;;7.93;5.05;;;19.50;83.80;;;;;;4894783;29;20352;-75
2021/07/22 09:10:06;;;;;;;8.05;5.40;;;19.30;84.90;;;;;;4911219;29;20051;-75
2021/07/22 09:12:42;;;;;;;6.55;4.65;;;19.30;86.70;;;;;;4881040;29;20679;-76
2021/07/22 09:15:10;;;;;;;6.53;4.88;;;19.30;85.90;;;;;;4896278;29;20056;-76
2021/07/22 09:17:36;;;;;;;5.95;4.80;;;19.30;84.90;;;;;;4899711;29;20047;-75
2021/07/22 09:20:08;;;;;;;7.05;4.97;;;19.20;83.30;;;;;;4894100;29;20127;-76
2021/07/22 09:22:41;;;;;;;6.95;4.47;;;19.30;83.00;;;;;;4907004;29;20067;-75
2021/07/22 09:25:11;;;;;;;9.50;5.00;;;19.70;83.80;;;;;;4899075;29;20067;-76
2021/07/22 09:27:42;;;;;;;6.53;4.70;;;20.00;82.30;;;;;;4884037;29;20059;-76
2021/07/22 09:30:12;;;;;;;6.72;4.75;;;20.40;82.70;;;;;;4894251;29;20566;-76
2021/07/22 09:32:45;;;;;;;9.07;4.55;;;20.70;78.20;;;;;;4879585;29;20426;-78
2021/07/22 09:35:24;;;;;;;5.75;4.03;;;20.80;77.30;;;;;;4882143;29;20048;-77
2021/07/22 09:37:53;;;;;;;6.43;4.22;;;20.90;75.90;;;;;;4900741;29;20123;-78
2021/07/22 09:40:39;;;;;;;5.38;4.45;;;21.00;78.40;;;;;;4896532;29;20044;-77
2021/07/22 09:43:06;;;;;;;8.80;4.72;;;21.20;76.50;;;;;;4894975;29;20063;-75
2021/07/22 09:45:35;;;;;;;7.30;4.78;;;21.10;79.80;;;;;;4869853;29;20048;-75
2021/07/22 09:48:10;;;;;;;7.07;4.68;;;21.00;80.40;;;;;;4891563;29;20051;-76
2021/07/22 09:50:44;;;;;;;7.35;4.70;;;20.80;80.50;;;;;;4874097;29;20407;-75
2021/07/22 09:53:12;;;;;;;7.35;5.03;;;20.60;83.30;;;;;;4872852;29;20048;-76
2021/07/22 09:55:40;;;;;;;7.15;4.65;;;20.50;85.90;;;;;;4892475;29;20139;-75
2021/07/22 09:58:08;;;;;;;6.05;4.20;;;20.50;84.00;;;;;;4880967;29;20425;-76
2021/07/22 10:00:41;;;;;;;6.85;4.53;;;20.50;84.90;;;;;;4882912;29;20055;-76
2021/07/22 10:03:12;;;;;;;6.43;4.30;;;20.60;82.80;;;;;;4905714;29;20040;-83
2021/07/22 10:05:56;;;;;;;6.07;4.40;;;20.90;82.00;;;;;;4876734;29;20058;-86
2021/07/22 10:08:23;;;;;;;6.95;4.57;;;21.30;79.80;;;;;;4894283;29;20063;-84
2021/07/22 10:10:55;;;;;;;6.22;4.72;;;21.60;73.00;;;;;;4860432;29;20047;-82
2021/07/22 10:13:42;;;;;;;7.78;4.72;;;21.70;70.20;;;;;;4897649;29;20471;-82
2021/07/22 10:16:12;;;;;;;8.18;5.00;;;21.70;70.80;;;;;;4886567;29;20131;-83
2021/07/22 10:18:46;;;;;;;6.68;4.75;;;21.70;69.10;;;;;;4877692;29;20058;-81
2021/07/22 10:21:13;;;;;;;7.43;4.55;;;21.80;71.30;;;;;;4911029;29;20573;-88
2021/07/22 10:23:40;;;;;;;5.95;4.13;;;21.80;70.60;;;;;;4886178;29;20036;-85
2021/07/22 10:26:07;;;;;;;7.07;4.18;;;21.70;69.20;;;;;;4895157;29;20094;-86
2021/07/22 10:28:36;;;;;;;7.35;4.60;;;21.60;68.50;;;;;;4901678;29;20131;-86
2021/07/22 10:31:05;;;;;;;5.78;3.65;;;21.70;67.60;;;;;;4900354;29;20377;-89
2021/07/22 10:33:34;;;;;;;6.18;5.13;;;21.70;69.60;;;;;;4892222;29;20048;-85
2021/07/22 10:36:01;;;;;;;5.05;4.47;;;21.60;67.80;;;;;;4864029;29;20059;-84
2021/07/22 10:38:47;;;;;;;6.75;4.05;;;21.50;65.20;;;;;;4905287;29;20432;-85
2021/07/22 10:41:32;;;;;;;7.15;4.38;;;21.20;70.10;;;;;;4879691;29;20079;-86
2021/07/22 10:43:58;;;;;;;6.90;4.40;;;21.10;74.30;;;;;;4893813;29;20127;-78
2021/07/22 10:46:24;;;;;;;5.78;4.20;;;21.20;72.60;;;;;;4891837;29;20558;-83
2021/07/22 10:49:10;;;;;;;6.97;3.83;;;21.30;73.00;;;;;;4874586;29;20199;-78
2021/07/22 10:51:39;;;;;;;4.75;3.47;;;21.60;74.20;;;;;;4885702;29;20510;-77
2021/07/22 10:54:05;;;;;;;6.40;4.57;;;21.90;73.80;;;;;;4902834;29;20047;-77
2021/07/22 10:56:43;;;;;;;5.25;4.15;;;22.00;66.50;;;;;;4890144;29;20060;-78
2021/07/22 10:59:10;;;;;;;6.80;4.53;;;21.90;66.50;;;;;;4895187;29;20120;-78
2021/07/22 11:01:42;;;;;;;5.75;4.13;;;21.80;69.10;;;;;;4899725;29;20490;-80
2021/07/22 11:04:31;;;;;;;5.80;3.60;;;21.80;67.90;;;;;;4899879;29;20044;-78
2021/07/22 11:07:04;;;;;;;6.45;4.30;;;22.00;68.50;;;;;;4871713;29;20444;-80
2021/07/22 11:09:46;;;;;;;5.90;3.42;;;22.20;63.20;;;;;;4890654;29;20503;-78
2021/07/22 11:12:38;;;;;;;4.63;3.60;;;22.30;62.60;;;;;;4875303;29;20550;-82
2021/07/22 11:15:08;;;;;;;5.65;3.80;;;22.60;64.60;;;;;;4899547;29;20044;-78
2021/07/22 11:17:36;;;;;;;5.25;3.40;;;22.60;65.50;;;;;;4898932;29;20513;-77
2021/07/22 11:20:20;;;;;;;6.38;3.70;;;22.40;66.70;;;;;;4892244;29;20088;-78
2021/07/22 11:22:48;;;;;;;5.45;3.50;;;22.10;67.50;;;;;;4899398;29;20051;-78
2021/07/22 11:25:15;;;;;;;5.53;3.65;;;22.00;69.40;;;;;;4893003;29;20048;-77
2021/07/22 11:27:44;;;;;;;5.65;3.67;;;22.00;63.00;;;;;;4869473;29;20513;-77
2021/07/22 11:30:16;;;;;;;8.13;4.07;;;22.10;64.90;;;;;;4886365;29;20045;-80
2021/07/22 11:32:42;;;;;;;6.32;3.80;;;22.30;61.00;;;;;;4889586;29;20051;-79
2021/07/22 11:35:09;;;;;;;6.18;3.55;;;22.40;63.50;;;;;;4895702;29;20048;-76
2021/07/22 11:37:41;;;;;;;4.93;3.80;;;22.50;61.60;;;;;;4891255;29;20495;-76
2021/07/22 11:40:11;;;;;;;5.28;3.85;;;22.70;66.60;;;;;;4852660;29;20148;-77
2021/07/22 11:42:50;;;;;;;5.63;3.58;;;22.80;62.40;;;;;;4873821;29;20149;-78
2021/07/22 11:45:16;;;;;;;8.85;3.40;;;22.70;63.40;;;;;;4904090;29;20048;-81
2021/07/22 11:47:43;;;;;;;6.05;3.63;;;22.70;63.60;;;;;;4874046;29;20040;-77
2021/07/22 11:50:09;;;;;;;5.88;4.05;;;22.80;59.40;;;;;;4907691;29;20044;-79
2021/07/22 11:52:35;;;;;;;4.95;3.53;;;22.80;60.60;;;;;;4882286;29;20399;-77
2021/07/22 11:55:11;;;;;;;5.38;3.75;;;22.80;62.00;;;;;;4891294;29;20510;-75
2021/07/22 11:57:42;;;;;;;6.78;4.00;;;22.90;62.50;;;;;;4890190;29;20118;-79
2021/07/22 12:00:15;;;;;;;6.55;4.20;;;22.90;63.00;;;;;;4885646;29;20127;-77
2021/07/22 12:02:46;;;;;;;6.72;4.45;;;23.00;59.30;;;;;;4898910;29;20378;-77
2021/07/22 12:05:13;;;;;;;7.32;3.95;;;22.90;58.00;;;;;;4905436;29;20423;-79
2021/07/22 12:07:42;;;;;;;4.75;3.53;;;22.70;59.50;;;;;;4892873;29;20057;-78
2021/07/22 12:10:11;;;;;;;6.10;3.53;;;22.60;63.10;;;;;;4883972;29;20083;-75
2021/07/22 12:12:37;;;;;;;5.65;3.85;;;22.70;65.40;;;;;;4864584;29;20323;-76
2021/07/22 12:15:08;;;;;;;6.25;4.43;;;22.70;60.60;;;;;;4894703;29;20075;-80
2021/07/22 12:17:36;;;;;;;5.45;3.63;;;22.60;64.40;;;;;;4886672;29;20044;-78
2021/07/22 12:20:03;;;;;;;5.65;3.50;;;22.60;64.90;;;;;;4912665;29;20076;-77
2021/07/22 12:22:32;;;;;;;5.10;3.40;;;22.60;57.90;;;;;;4888147;29;20127;-83
2021/07/22 12:25:18;;;;;;;;;;;22.50;57.60;;;;;;4918667;29;20095;-78
2021/07/22 12:27:50;;;;;;;5.90;3.42;;;22.50;60.70;;;;;;4901553;29;19927;-79
2021/07/22 12:30:19;;;;;;;6.65;3.28;;;22.60;60.10;;;;;;4909394;29;20047;-80
2021/07/22 12:32:59;;;;;;;6.03;3.33;;;22.80;60.20;;;;;;4885559;29;20048;-78
2021/07/22 12:35:32;;;;;;;4.72;3.58;;;23.00;58.40;;;;;;4888970;29;20184;-80
2021/07/22 12:38:24;;;;;;;4.32;3.10;;;23.00;58.40;;;;;;4907113;29;20052;-78
2021/07/22 12:40:57;;;;;;;5.60;3.60;;;23.00;61.60;;;;;;4892880;29;20064;-76
2021/07/22 12:43:45;;;;;;;5.05;3.55;;;23.00;57.80;;;;;;4911108;29;20040;-79